sensor_id;sensor_type;location;lat;lon;timestamp;temperature;humidity
15013;DHT22;7603;49.432;11.418;2024-02-15T00:00:03;9.40;99.90
15013;DHT22;7603;49.432;11.418;2024-02-15T00:02:29;9.30;99.90
15013;DHT22;7603;49.432;11.418;2024-02-15T00:04:55;9.30;99.90
15013;DHT22;7603;49.432;11.418;2024-02-15T00:07:22;9.30;99.90
15013;DHT22;7603;49.432;11.418;2024-02-15T00:09:49;9.30;99.90
15013;DHT22;7603;49.432;11.418;2024-02-15T00:12:15;9.30;99.90
15013;DHT22;7603;49.432;11.418;2024-02-15T00:14:40;9.30;99.90
15013;DHT22;7603;49.432;11.418;2024-02-15T00:17:06;9.30;99.90
15013;DHT22;7603;49.432;11.418;2024-02-15T00:19:32;9.30;99.90
15013;DHT22;7603;49.432;11.418;2024-02-15T00:21:57;9.30;99.90
15013;DHT22;7603;49.432;11.418;2024-02-15T00:24:23;9.30;99.90
15013;DHT22;7603;49.432;11.418;2024-02-15T00:26:52;9.30;99.90
15013;DHT22;7603;49.432;11.418;2024-02-15T00:29:19;9.30;99.90
15013;DHT22;7603;49.432;11.418;2024-02-15T00:31:45;9.30;99.90
15013;DHT22;7603;49.432;11.418;2024-02-15T00:34:10;9.30;99.90
15013;DHT22;7603;49.432;11.418;2024-02-15T00:36:37;9.30;99.90
15013;DHT22;7603;49.432;11.418;2024-02-15T00:39:02;9.30;99.90
15013;DHT22;7603;49.432;11.418;2024-02-15T00:41:32;9.30;99.90
15013;DHT22;7603;49.432;11.418;2024-02-15T00:43:59;9.40;99.90
15013;DHT22;7603;49.432;11.418;2024-02-15T00:46:25;9.30;99.90
15013;DHT22;7603;49.432;11.418;2024-02-15T00:48:55;9.40;99.90
15013;DHT22;7603;49.432;11.418;2024-02-15T00:51:21;9.40;99.90
15013;DHT22;7603;49.432;11.418;2024-02-15T00:53:46;9.30;99.90
15013;DHT22;7603;49.432;11.418;2024-02-15T00:56:12;9.40;99.90
15013;DHT22;7603;49.432;11.418;2024-02-15T00:58:38;9.40;99.90
15013;DHT22;7603;49.432;11.418;2024-02-15T01:01:04;9.40;99.90
15013;DHT22;7603;49.432;11.418;2024-02-15T01:03:29;9.40;99.90
15013;DHT22;7603;49.432;11.418;2024-02-15T01:05:56;9.40;99.90
15013;DHT22;7603;49.432;11.418;2024-02-15T01:08:21;9.40;99.90
15013;DHT22;7603;49.432;11.418;2024-02-15T01:10:47;9.40;99.90
15013;DHT22;7603;49.432;11.418;2024-02-15T01:13:13;9.40;99.90
15013;DHT22;7603;49.432;11.418;2024-02-15T01:15:38;9.40;99.90
15013;DHT22;7603;49.432;11.418;2024-02-15T01:18:06;9.40;99.90
15013;DHT22;7603;49.432;11.418;2024-02-15T01:20:32;9.40;99.90
15013;DHT22;7603;49.432;11.418;2024-02-15T01:22:57;9.50;99.90
15013;DHT22;7603;49.432;11.418;2024-02-15T01:25:23;9.40;99.90
15013;DHT22;7603;49.432;11.418;2024-02-15T01:27:49;9.40;99.90
15013;DHT22;7603;49.432;11.418;2024-02-15T01:30:14;9.40;99.90
15013;DHT22;7603;49.432;11.418;2024-02-15T01:32:40;9.40;99.90
15013;DHT22;7603;49.432;11.418;2024-02-15T01:35:08;9.40;99.90
15013;DHT22;7603;49.432;11.418;2024-02-15T01:37:35;9.40;99.90
15013;DHT22;7603;49.432;11.418;2024-02-15T01:40:02;9.40;99.90
15013;DHT22;7603;49.432;11.418;2024-02-15T01:42:28;9.40;99.90
15013;DHT22;7603;49.432;11.418;2024-02-15T01:44:54;9.40;99.90
15013;DHT22;7603;49.432;11.418;2024-02-15T01:47:20;9.40;99.90
15013;DHT22;7603;49.432;11.418;2024-02-15T01:49:46;9.40;99.90
15013;DHT22;7603;49.432;11.418;2024-02-15T01:52:15;9.40;99.90
15013;DHT22;7603;49.432;11.418;2024-02-15T01:54:42;9.30;99.90
15013;DHT22;7603;49.432;11.418;2024-02-15T01:57:08;9.40;99.90
15013;DHT22;7603;49.432;11.418;2024-02-15T01:59:34;9.40;99.90
15013;DHT22;7603;49.432;11.418;2024-02-15T02:02:02;9.40;99.90
15013;DHT22;7603;49.432;11.418;2024-02-15T02:04:29;9.40;99.90
15013;DHT22;7603;49.432;11.418;2024-02-15T02:06:57;9.40;99.90
15013;DHT22;7603;49.432;11.418;2024-02-15T02:09:24;9.40;99.90
15013;DHT22;7603;49.432;11.418;2024-02-15T02:11:50;9.40;99.90
15013;DHT22;7603;49.432;11.418;2024-02-15T02:14:16;9.40;99.90
15013;DHT22;7603;49.432;11.418;2024-02-15T02:16:42;9.40;99.90
15013;DHT22;7603;49.432;11.418;2024-02-15T02:19:08;9.40;99.90
15013;DHT22;7603;49.432;11.418;2024-02-15T02:21:35;9.40;99.90
15013;DHT22;7603;49.432;11.418;2024-02-15T02:24:03;9.40;99.90
15013;DHT22;7603;49.432;11.418;2024-02-15T02:26:33;9.40;99.90
15013;DHT22;7603;49.432;11.418;2024-02-15T02:29:00;9.40;99.90
15013;DHT22;7603;49.432;11.418;2024-02-15T02:31:33;9.40;99.90
15013;DHT22;7603;49.432;11.418;2024-02-15T02:34:00;9.40;99.90
15013;DHT22;7603;49.432;11.418;2024-02-15T02:36:26;9.40;99.90
15013;DHT22;7603;49.432;11.418;2024-02-15T02:38:52;9.40;99.90
15013;DHT22;7603;49.432;11.418;2024-02-15T02:41:18;9.40;99.90
15013;DHT22;7603;49.432;11.418;2024-02-15T02:43:48;9.40;99.90
15013;DHT22;7603;49.432;11.418;2024-02-15T02:46:14;9.40;99.90
15013;DHT22;7603;49.432;11.418;2024-02-15T02:48:40;9.40;99.90
15013;DHT22;7603;49.432;11.418;2024-02-15T02:51:07;9.50;99.90
15013;DHT22;7603;49.432;11.418;2024-02-15T02:53:33;9.50;99.90
15013;DHT22;7603;49.432;11.418;2024-02-15T02:55:59;9.60;99.90
15013;DHT22;7603;49.432;11.418;2024-02-15T02:58:25;9.60;99.90
15013;DHT22;7603;49.432;11.418;2024-02-15T03:00:51;9.60;99.90
15013;DHT22;7603;49.432;11.418;2024-02-15T03:03:17;9.60;99.90
15013;DHT22;7603;49.432;11.418;2024-02-15T03:05:44;9.60;99.90
15013;DHT22;7603;49.432;11.418;2024-02-15T03:08:11;9.60;99.90
15013;DHT22;7603;49.432;11.418;2024-02-15T03:10:38;9.60;99.90
15013;DHT22;7603;49.432;11.418;2024-02-15T03:13:05;9.60;99.90
15013;DHT22;7603;49.432;11.418;2024-02-15T03:15:31;9.60;99.90
15013;DHT22;7603;49.432;11.418;2024-02-15T03:17:58;9.60;99.90
15013;DHT22;7603;49.432;11.418;2024-02-15T03:20:24;9.60;99.90
15013;DHT22;7603;49.432;11.418;2024-02-15T03:22:54;9.60;99.90
15013;DHT22;7603;49.432;11.418;2024-02-15T03:25:20;9.60;99.90
15013;DHT22;7603;49.432;11.418;2024-02-15T03:27:52;9.60;99.90
15013;DHT22;7603;49.432;11.418;2024-02-15T03:30:19;9.60;99.90
15013;DHT22;7603;49.432;11.418;2024-02-15T03:32:45;9.60;99.90
15013;DHT22;7603;49.432;11.418;2024-02-15T03:35:17;9.50;99.90
15013;DHT22;7603;49.432;11.418;2024-02-15T03:37:43;9.50;99.90
15013;DHT22;7603;49.432;11.418;2024-02-15T03:40:09;9.50;99.90
15013;DHT22;7603;49.432;11.418;2024-02-15T03:42:37;9.50;99.90
15013;DHT22;7603;49.432;11.418;2024-02-15T03:45:07;9.50;99.90
15013;DHT22;7603;49.432;11.418;2024-02-15T03:47:34;9.50;99.90
15013;DHT22;7603;49.432;11.418;2024-02-15T03:50:01;9.50;99.90
15013;DHT22;7603;49.432;11.418;2024-02-15T03:52:28;9.50;99.90
15013;DHT22;7603;49.432;11.418;2024-02-15T03:54:56;9.50;99.90
15013;DHT22;7603;49.432;11.418;2024-02-15T03:57:23;9.50;99.90
15013;DHT22;7603;49.432;11.418;2024-02-15T03:59:48;9.50;99.90
15013;DHT22;7603;49.432;11.418;2024-02-15T04:02:21;9.50;99.90
15013;DHT22;7603;49.432;11.418;2024-02-15T04:04:49;9.50;99.90
15013;DHT22;7603;49.432;11.418;2024-02-15T04:07:18;9.50;99.90
15013;DHT22;7603;49.432;11.418;2024-02-15T04:09:45;9.40;99.90
15013;DHT22;7603;49.432;11.418;2024-02-15T04:12:12;9.40;99.90
15013;DHT22;7603;49.432;11.418;2024-02-15T04:14:38;9.40;99.90
15013;DHT22;7603;49.432;11.418;2024-02-15T04:17:04;9.40;99.90
15013;DHT22;7603;49.432;11.418;2024-02-15T04:19:33;9.40;99.90
15013;DHT22;7603;49.432;11.418;2024-02-15T04:21:59;9.30;99.90
15013;DHT22;7603;49.432;11.418;2024-02-15T04:24:33;9.30;99.90
15013;DHT22;7603;49.432;11.418;2024-02-15T04:27:00;9.30;99.90
15013;DHT22;7603;49.432;11.418;2024-02-15T04:29:25;9.20;99.90
15013;DHT22;7603;49.432;11.418;2024-02-15T04:31:51;9.20;99.90
15013;DHT22;7603;49.432;11.418;2024-02-15T04:34:20;9.10;99.90
15013;DHT22;7603;49.432;11.418;2024-02-15T04:36:47;9.10;99.90
15013;DHT22;7603;49.432;11.418;2024-02-15T04:39:17;9.10;99.90
15013;DHT22;7603;49.432;11.418;2024-02-15T04:41:51;9.10;99.90
15013;DHT22;7603;49.432;11.418;2024-02-15T04:44:17;9.00;99.90
15013;DHT22;7603;49.432;11.418;2024-02-15T04:46:48;9.00;99.90
15013;DHT22;7603;49.432;11.418;2024-02-15T04:49:17;9.00;99.90
15013;DHT22;7603;49.432;11.418;2024-02-15T04:51:42;9.00;99.90
15013;DHT22;7603;49.432;11.418;2024-02-15T04:54:09;8.90;99.90
15013;DHT22;7603;49.432;11.418;2024-02-15T04:56:39;8.90;99.90
15013;DHT22;7603;49.432;11.418;2024-02-15T04:59:05;8.90;99.90
15013;DHT22;7603;49.432;11.418;2024-02-15T05:01:34;8.90;99.90
15013;DHT22;7603;49.432;11.418;2024-02-15T05:04:01;8.90;99.90
15013;DHT22;7603;49.432;11.418;2024-02-15T05:06:31;8.80;99.90
15013;DHT22;7603;49.432;11.418;2024-02-15T05:08:57;8.80;99.90
15013;DHT22;7603;49.432;11.418;2024-02-15T05:11:25;8.80;99.90
15013;DHT22;7603;49.432;11.418;2024-02-15T05:13:51;8.70;99.90
15013;DHT22;7603;49.432;11.418;2024-02-15T05:16:22;8.70;99.90
15013;DHT22;7603;49.432;11.418;2024-02-15T05:18:57;8.70;99.90
15013;DHT22;7603;49.432;11.418;2024-02-15T05:21:22;8.70;99.90
15013;DHT22;7603;49.432;11.418;2024-02-15T05:23:48;8.70;99.90
15013;DHT22;7603;49.432;11.418;2024-02-15T05:26:14;8.70;99.90
15013;DHT22;7603;49.432;11.418;2024-02-15T05:28:42;8.70;99.90
15013;DHT22;7603;49.432;11.418;2024-02-15T05:31:18;8.80;99.90
15013;DHT22;7603;49.432;11.418;2024-02-15T05:33:47;8.80;99.90
15013;DHT22;7603;49.432;11.418;2024-02-15T05:36:14;8.90;99.90
15013;DHT22;7603;49.432;11.418;2024-02-15T05:38:40;8.90;99.90
15013;DHT22;7603;49.432;11.418;2024-02-15T05:41:06;8.90;99.90
15013;DHT22;7603;49.432;11.418;2024-02-15T05:43:34;8.90;99.90
15013;DHT22;7603;49.432;11.418;2024-02-15T05:46:04;8.90;99.90
15013;DHT22;7603;49.432;11.418;2024-02-15T05:48:32;9.00;99.90
15013;DHT22;7603;49.432;11.418;2024-02-15T05:51:00;9.00;99.90
15013;DHT22;7603;49.432;11.418;2024-02-15T05:53:26;9.00;99.90
15013;DHT22;7603;49.432;11.418;2024-02-15T05:55:52;9.10;99.90
15013;DHT22;7603;49.432;11.418;2024-02-15T05:58:18;9.10;99.90
15013;DHT22;7603;49.432;11.418;2024-02-15T06:00:44;9.10;99.90
15013;DHT22;7603;49.432;11.418;2024-02-15T06:03:10;9.10;99.90
15013;DHT22;7603;49.432;11.418;2024-02-15T06:05:39;9.20;99.90
15013;DHT22;7603;49.432;11.418;2024-02-15T06:08:05;9.20;99.90
15013;DHT22;7603;49.432;11.418;2024-02-15T06:10:31;9.20;99.90
15013;DHT22;7603;49.432;11.418;2024-02-15T06:12:57;9.20;99.90
15013;DHT22;7603;49.432;11.418;2024-02-15T06:15:25;9.20;99.90
15013;DHT22;7603;49.432;11.418;2024-02-15T06:17:51;9.20;99.90
15013;DHT22;7603;49.432;11.418;2024-02-15T06:20:16;9.20;99.90
15013;DHT22;7603;49.432;11.418;2024-02-15T06:22:49;9.20;99.90
15013;DHT22;7603;49.432;11.418;2024-02-15T06:25:14;9.20;99.90
15013;DHT22;7603;49.432;11.418;2024-02-15T06:27:45;9.20;99.90
15013;DHT22;7603;49.432;11.418;2024-02-15T06:30:12;9.20;99.90
15013;DHT22;7603;49.432;11.418;2024-02-15T06:32:57;9.20;99.90
15013;DHT22;7603;49.432;11.418;2024-02-15T06:35:42;9.20;99.90
15013;DHT22;7603;49.432;11.418;2024-02-15T06:38:26;9.20;99.90
15013;DHT22;7603;49.432;11.418;2024-02-15T06:41:10;9.30;99.90
15013;DHT22;7603;49.432;11.418;2024-02-15T06:43:36;9.30;99.90
15013;DHT22;7603;49.432;11.418;2024-02-15T06:46:03;9.30;99.90
15013;DHT22;7603;49.432;11.418;2024-02-15T06:48:31;9.30;99.90
15013;DHT22;7603;49.432;11.418;2024-02-15T06:50:57;9.30;99.90
15013;DHT22;7603;49.432;11.418;2024-02-15T06:53:23;9.30;99.90
15013;DHT22;7603;49.432;11.418;2024-02-15T06:55:50;9.30;99.90
15013;DHT22;7603;49.432;11.418;2024-02-15T06:58:19;9.30;99.90
15013;DHT22;7603;49.432;11.418;2024-02-15T07:00:45;9.40;99.90
15013;DHT22;7603;49.432;11.418;2024-02-15T07:03:13;9.40;99.90
15013;DHT22;7603;49.432;11.418;2024-02-15T07:05:42;9.50;99.90
15013;DHT22;7603;49.432;11.418;2024-02-15T07:08:08;9.50;99.90
15013;DHT22;7603;49.432;11.418;2024-02-15T07:10:38;9.50;99.90
15013;DHT22;7603;49.432;11.418;2024-02-15T07:13:05;9.60;99.90
15013;DHT22;7603;49.432;11.418;2024-02-15T07:15:34;9.60;99.90
15013;DHT22;7603;49.432;11.418;2024-02-15T07:18:05;9.60;99.90
15013;DHT22;7603;49.432;11.418;2024-02-15T07:20:32;9.70;99.90
15013;DHT22;7603;49.432;11.418;2024-02-15T07:22:58;9.70;99.90
15013;DHT22;7603;49.432;11.418;2024-02-15T07:25:24;9.80;99.90
15013;DHT22;7603;49.432;11.418;2024-02-15T07:27:49;9.90;99.90
15013;DHT22;7603;49.432;11.418;2024-02-15T07:30:15;9.90;99.90
15013;DHT22;7603;49.432;11.418;2024-02-15T07:32:41;10.00;99.90
15013;DHT22;7603;49.432;11.418;2024-02-15T07:35:07;10.10;99.90
15013;DHT22;7603;49.432;11.418;2024-02-15T07:37:34;10.20;99.90
15013;DHT22;7603;49.432;11.418;2024-02-15T07:40:00;10.20;99.90
15013;DHT22;7603;49.432;11.418;2024-02-15T07:42:26;10.30;99.90
15013;DHT22;7603;49.432;11.418;2024-02-15T07:44:52;10.30;99.90
15013;DHT22;7603;49.432;11.418;2024-02-15T07:47:18;10.30;99.90
15013;DHT22;7603;49.432;11.418;2024-02-15T07:49:46;10.40;99.90
15013;DHT22;7603;49.432;11.418;2024-02-15T07:52:13;10.40;99.90
15013;DHT22;7603;49.432;11.418;2024-02-15T07:54:39;10.50;99.90
15013;DHT22;7603;49.432;11.418;2024-02-15T07:57:05;10.60;99.90
15013;DHT22;7603;49.432;11.418;2024-02-15T07:59:31;10.70;99.90
15013;DHT22;7603;49.432;11.418;2024-02-15T08:01:56;10.80;99.90
15013;DHT22;7603;49.432;11.418;2024-02-15T08:04:23;11.00;99.90
15013;DHT22;7603;49.432;11.418;2024-02-15T08:06:50;11.10;99.90
15013;DHT22;7603;49.432;11.418;2024-02-15T08:09:19;11.20;99.90
15013;DHT22;7603;49.432;11.418;2024-02-15T08:11:47;11.40;99.90
15013;DHT22;7603;49.432;11.418;2024-02-15T08:14:13;11.50;99.90
15013;DHT22;7603;49.432;11.418;2024-02-15T08:16:38;11.70;99.90
15013;DHT22;7603;49.432;11.418;2024-02-15T08:19:06;11.80;99.90
15013;DHT22;7603;49.432;11.418;2024-02-15T08:21:33;11.80;99.90
15013;DHT22;7603;49.432;11.418;2024-02-15T08:24:03;11.90;99.90
15013;DHT22;7603;49.432;11.418;2024-02-15T08:26:39;11.90;99.90
15013;DHT22;7603;49.432;11.418;2024-02-15T08:29:05;12.00;99.90
15013;DHT22;7603;49.432;11.418;2024-02-15T08:31:35;12.00;99.90
15013;DHT22;7603;49.432;11.418;2024-02-15T08:34:02;12.10;99.90
15013;DHT22;7603;49.432;11.418;2024-02-15T08:36:29;12.10;99.90
15013;DHT22;7603;49.432;11.418;2024-02-15T08:38:56;12.20;99.90
15013;DHT22;7603;49.432;11.418;2024-02-15T08:41:21;12.20;99.90
15013;DHT22;7603;49.432;11.418;2024-02-15T08:43:52;12.30;99.90
15013;DHT22;7603;49.432;11.418;2024-02-15T08:46:18;12.30;99.90
15013;DHT22;7603;49.432;11.418;2024-02-15T08:48:48;12.40;99.90
15013;DHT22;7603;49.432;11.418;2024-02-15T08:51:13;12.40;99.90
15013;DHT22;7603;49.432;11.418;2024-02-15T08:53:39;12.50;99.90
15013;DHT22;7603;49.432;11.418;2024-02-15T08:56:05;12.50;99.90
15013;DHT22;7603;49.432;11.418;2024-02-15T08:58:31;12.60;99.90
15013;DHT22;7603;49.432;11.418;2024-02-15T09:00:58;12.60;99.90
15013;DHT22;7603;49.432;11.418;2024-02-15T09:03:24;12.70;99.90
15013;DHT22;7603;49.432;11.418;2024-02-15T09:05:50;12.80;99.90
15013;DHT22;7603;49.432;11.418;2024-02-15T09:08:28;13.00;99.90
15013;DHT22;7603;49.432;11.418;2024-02-15T09:10:55;13.10;99.90
15013;DHT22;7603;49.432;11.418;2024-02-15T09:13:23;13.20;99.90
15013;DHT22;7603;49.432;11.418;2024-02-15T09:15:49;13.20;99.90
15013;DHT22;7603;49.432;11.418;2024-02-15T09:21:40;13.40;99.90
15013;DHT22;7603;49.432;11.418;2024-02-15T09:24:06;13.50;99.90
15013;DHT22;7603;49.432;11.418;2024-02-15T09:26:32;13.50;99.90
15013;DHT22;7603;49.432;11.418;2024-02-15T09:29:29;13.60;99.90
15013;DHT22;7603;49.432;11.418;2024-02-15T09:31:57;13.60;99.90
15013;DHT22;7603;49.432;11.418;2024-02-15T09:34:26;13.80;99.90
15013;DHT22;7603;49.432;11.418;2024-02-15T09:36:52;13.90;99.90
15013;DHT22;7603;49.432;11.418;2024-02-15T09:39:18;14.00;99.90
15013;DHT22;7603;49.432;11.418;2024-02-15T09:41:43;14.00;99.90
15013;DHT22;7603;49.432;11.418;2024-02-15T09:44:10;14.00;99.90
15013;DHT22;7603;49.432;11.418;2024-02-15T09:46:38;14.20;99.90
15013;DHT22;7603;49.432;11.418;2024-02-15T09:49:06;14.30;99.90
15013;DHT22;7603;49.432;11.418;2024-02-15T09:51:33;14.40;99.90
15013;DHT22;7603;49.432;11.418;2024-02-15T09:54:06;14.50;99.90
15013;DHT22;7603;49.432;11.418;2024-02-15T09:56:35;14.60;99.90
15013;DHT22;7603;49.432;11.418;2024-02-15T09:59:01;14.70;99.90
15013;DHT22;7603;49.432;11.418;2024-02-15T10:01:31;14.80;99.90
15013;DHT22;7603;49.432;11.418;2024-02-15T10:03:58;14.90;99.90
15013;DHT22;7603;49.432;11.418;2024-02-15T10:06:25;14.90;99.90
15013;DHT22;7603;49.432;11.418;2024-02-15T10:11:58;15.10;99.90
15013;DHT22;7603;49.432;11.418;2024-02-15T10:14:25;15.30;99.90
15013;DHT22;7603;49.432;11.418;2024-02-15T10:16:52;15.40;99.90
15013;DHT22;7603;49.432;11.418;2024-02-15T10:19:19;15.60;99.90
15013;DHT22;7603;49.432;11.418;2024-02-15T10:21:52;15.70;99.90
15013;DHT22;7603;49.432;11.418;2024-02-15T10:24:24;15.90;99.90
15013;DHT22;7603;49.432;11.418;2024-02-15T10:26:50;16.00;99.90
15013;DHT22;7603;49.432;11.418;2024-02-15T10:29:16;16.10;99.90
15013;DHT22;7603;49.432;11.418;2024-02-15T10:31:59;16.20;99.90
15013;DHT22;7603;49.432;11.418;2024-02-15T10:34:25;16.20;99.90
15013;DHT22;7603;49.432;11.418;2024-02-15T10:36:54;16.30;99.90
15013;DHT22;7603;49.432;11.418;2024-02-15T10:39:22;16.50;99.90
15013;DHT22;7603;49.432;11.418;2024-02-15T10:41:51;16.60;99.90
15013;DHT22;7603;49.432;11.418;2024-02-15T10:44:21;16.90;99.90
15013;DHT22;7603;49.432;11.418;2024-02-15T10:46:49;17.10;99.90
15013;DHT22;7603;49.432;11.418;2024-02-15T10:49:22;17.30;99.90
15013;DHT22;7603;49.432;11.418;2024-02-15T10:51:52;17.50;99.90
15013;DHT22;7603;49.432;11.418;2024-02-15T10:57:04;17.90;99.90
15013;DHT22;7603;49.432;11.418;2024-02-15T10:59:34;18.10;99.90
15013;DHT22;7603;49.432;11.418;2024-02-15T11:04:44;18.40;99.90
15013;DHT22;7603;49.432;11.418;2024-02-15T11:07:10;18.50;99.90
15013;DHT22;7603;49.432;11.418;2024-02-15T11:09:37;18.60;99.90
15013;DHT22;7603;49.432;11.418;2024-02-15T11:12:06;18.70;99.90
15013;DHT22;7603;49.432;11.418;2024-02-15T11:14:32;18.90;99.90
15013;DHT22;7603;49.432;11.418;2024-02-15T11:17:01;19.00;99.90
15013;DHT22;7603;49.432;11.418;2024-02-15T11:22:01;19.10;99.90
15013;DHT22;7603;49.432;11.418;2024-02-15T11:24:32;19.30;99.90
15013;DHT22;7603;49.432;11.418;2024-02-15T11:27:02;19.80;99.90
15013;DHT22;7603;49.432;11.418;2024-02-15T11:29:51;20.30;99.90
15013;DHT22;7603;49.432;11.418;2024-02-15T11:32:42;20.90;99.10
15013;DHT22;7603;49.432;11.418;2024-02-15T11:40:27;24.10;88.50
15013;DHT22;7603;49.432;11.418;2024-02-15T11:43:00;25.20;81.70
15013;DHT22;7603;49.432;11.418;2024-02-15T11:45:27;26.20;74.10
15013;DHT22;7603;49.432;11.418;2024-02-15T11:48:03;26.90;69.60
15013;DHT22;7603;49.432;11.418;2024-02-15T11:50:34;27.30;66.30
15013;DHT22;7603;49.432;11.418;2024-02-15T11:53:05;28.00;62.30
15013;DHT22;7603;49.432;11.418;2024-02-15T11:55:37;28.70;59.00
15013;DHT22;7603;49.432;11.418;2024-02-15T11:58:08;29.10;53.20
15013;DHT22;7603;49.432;11.418;2024-02-15T12:00:33;28.70;52.10
15013;DHT22;7603;49.432;11.418;2024-02-15T12:03:32;28.00;53.20
15013;DHT22;7603;49.432;11.418;2024-02-15T12:06:20;27.00;54.70
15013;DHT22;7603;49.432;11.418;2024-02-15T12:09:05;26.00;55.40
15013;DHT22;7603;49.432;11.418;2024-02-15T12:11:58;25.30;56.30
15013;DHT22;7603;49.432;11.418;2024-02-15T12:17:52;24.40;59.60
15013;DHT22;7603;49.432;11.418;2024-02-15T12:20:37;24.30;60.00
15013;DHT22;7603;49.432;11.418;2024-02-15T12:23:03;24.30;60.00
15013;DHT22;7603;49.432;11.418;2024-02-15T12:25:40;24.20;59.10
15013;DHT22;7603;49.432;11.418;2024-02-15T12:28:15;24.10;59.10
15013;DHT22;7603;49.432;11.418;2024-02-15T12:30:45;24.00;59.20
15013;DHT22;7603;49.432;11.418;2024-02-15T12:33:12;24.00;59.40
15013;DHT22;7603;49.432;11.418;2024-02-15T12:36:03;23.80;59.50
15013;DHT22;7603;49.432;11.418;2024-02-15T12:38:43;23.60;60.20
15013;DHT22;7603;49.432;11.418;2024-02-15T12:41:23;23.60;60.60
15013;DHT22;7603;49.432;11.418;2024-02-15T12:43:56;23.70;60.60
15013;DHT22;7603;49.432;11.418;2024-02-15T12:46:23;24.20;60.20
15013;DHT22;7603;49.432;11.418;2024-02-15T12:48:49;24.90;58.80
15013;DHT22;7603;49.432;11.418;2024-02-15T12:51:21;25.50;57.60
15013;DHT22;7603;49.432;11.418;2024-02-15T12:54:08;25.80;56.00
15013;DHT22;7603;49.432;11.418;2024-02-15T12:56:47;26.50;54.30
15013;DHT22;7603;49.432;11.418;2024-02-15T12:59:45;27.10;54.30
15013;DHT22;7603;49.432;11.418;2024-02-15T13:02:12;27.40;52.20
15013;DHT22;7603;49.432;11.418;2024-02-15T13:04:40;27.90;52.10
15013;DHT22;7603;49.432;11.418;2024-02-15T13:07:05;28.60;50.20
15013;DHT22;7603;49.432;11.418;2024-02-15T13:09:32;29.00;49.10
15013;DHT22;7603;49.432;11.418;2024-02-15T13:11:58;29.20;49.30
15013;DHT22;7603;49.432;11.418;2024-02-15T13:14:25;29.60;48.20
15013;DHT22;7603;49.432;11.418;2024-02-15T13:16:55;29.80;47.30
15013;DHT22;7603;49.432;11.418;2024-02-15T13:19:21;29.50;46.40
15013;DHT22;7603;49.432;11.418;2024-02-15T13:21:46;29.00;46.60
15013;DHT22;7603;49.432;11.418;2024-02-15T13:24:18;28.50;47.00
15013;DHT22;7603;49.432;11.418;2024-02-15T13:26:45;28.00;47.30
15013;DHT22;7603;49.432;11.418;2024-02-15T13:29:12;27.90;48.40
15013;DHT22;7603;49.432;11.418;2024-02-15T13:31:42;28.00;48.60
15013;DHT22;7603;49.432;11.418;2024-02-15T13:34:09;28.20;48.10
15013;DHT22;7603;49.432;11.418;2024-02-15T13:36:43;28.50;46.90
15013;DHT22;7603;49.432;11.418;2024-02-15T13:39:09;28.70;46.50
15013;DHT22;7603;49.432;11.418;2024-02-15T13:41:35;28.60;45.70
15013;DHT22;7603;49.432;11.418;2024-02-15T13:44:02;28.40;45.70
15013;DHT22;7603;49.432;11.418;2024-02-15T13:46:30;28.20;46.40
15013;DHT22;7603;49.432;11.418;2024-02-15T13:48:56;28.20;46.50
15013;DHT22;7603;49.432;11.418;2024-02-15T13:51:23;28.10;45.60
15013;DHT22;7603;49.432;11.418;2024-02-15T13:53:50;27.90;45.80
15013;DHT22;7603;49.432;11.418;2024-02-15T13:56:37;27.70;46.30
15013;DHT22;7603;49.432;11.418;2024-02-15T13:59:30;27.20;45.90
15013;DHT22;7603;49.432;11.418;2024-02-15T14:02:11;26.50;47.00
15013;DHT22;7603;49.432;11.418;2024-02-15T14:05:14;26.00;48.50
15013;DHT22;7603;49.432;11.418;2024-02-15T14:07:50;25.60;48.70
15013;DHT22;7603;49.432;11.418;2024-02-15T14:10:19;25.20;49.10
15013;DHT22;7603;49.432;11.418;2024-02-15T14:12:51;24.90;50.00
15013;DHT22;7603;49.432;11.418;2024-02-15T14:15:19;24.50;49.90
15013;DHT22;7603;49.432;11.418;2024-02-15T14:17:45;24.10;51.00
15013;DHT22;7603;49.432;11.418;2024-02-15T14:20:12;23.70;51.80
15013;DHT22;7603;49.432;11.418;2024-02-15T14:22:47;23.30;51.70
15013;DHT22;7603;49.432;11.418;2024-02-15T14:25:28;22.80;53.70
15013;DHT22;7603;49.432;11.418;2024-02-15T14:28:00;22.30;54.70
15013;DHT22;7603;49.432;11.418;2024-02-15T14:30:26;22.00;54.90
15013;DHT22;7603;49.432;11.418;2024-02-15T14:33:17;21.70;55.20
15013;DHT22;7603;49.432;11.418;2024-02-15T14:35:49;21.30;56.00
15013;DHT22;7603;49.432;11.418;2024-02-15T14:38:24;21.00;57.00
15013;DHT22;7603;49.432;11.418;2024-02-15T14:40:55;20.70;57.90
15013;DHT22;7603;49.432;11.418;2024-02-15T14:43:23;20.40;58.70
15013;DHT22;7603;49.432;11.418;2024-02-15T14:45:52;20.10;59.40
15013;DHT22;7603;49.432;11.418;2024-02-15T14:48:18;19.80;59.80
15013;DHT22;7603;49.432;11.418;2024-02-15T14:50:46;19.60;61.20
15013;DHT22;7603;49.432;11.418;2024-02-15T14:53:12;19.40;62.30
15013;DHT22;7603;49.432;11.418;2024-02-15T14:55:41;19.30;63.70
15013;DHT22;7603;49.432;11.418;2024-02-15T14:58:14;19.20;63.90
15013;DHT22;7603;49.432;11.418;2024-02-15T15:00:42;19.20;64.80
15013;DHT22;7603;49.432;11.418;2024-02-15T15:03:10;19.10;65.10
15013;DHT22;7603;49.432;11.418;2024-02-15T15:05:42;19.10;65.80
15013;DHT22;7603;49.432;11.418;2024-02-15T15:08:26;19.10;66.00
15013;DHT22;7603;49.432;11.418;2024-02-15T15:11:11;19.00;66.50
15013;DHT22;7603;49.432;11.418;2024-02-15T15:13:55;18.90;67.60
15013;DHT22;7603;49.432;11.418;2024-02-15T15:16:21;18.90;68.70
15013;DHT22;7603;49.432;11.418;2024-02-15T15:18:51;19.00;69.50
15013;DHT22;7603;49.432;11.418;2024-02-15T15:21:22;19.10;70.30
15013;DHT22;7603;49.432;11.418;2024-02-15T15:23:53;19.30;70.50
15013;DHT22;7603;49.432;11.418;2024-02-15T15:26:20;19.60;71.40
15013;DHT22;7603;49.432;11.418;2024-02-15T15:28:46;19.80;71.60
15013;DHT22;7603;49.432;11.418;2024-02-15T15:31:13;20.00;72.00
15013;DHT22;7603;49.432;11.418;2024-02-15T15:33:41;20.00;72.50
15013;DHT22;7603;49.432;11.418;2024-02-15T15:36:06;20.10;73.60
15013;DHT22;7603;49.432;11.418;2024-02-15T15:38:32;20.10;73.10
15013;DHT22;7603;49.432;11.418;2024-02-15T15:40:58;20.00;73.40
15013;DHT22;7603;49.432;11.418;2024-02-15T15:43:25;19.70;73.60
15013;DHT22;7603;49.432;11.418;2024-02-15T15:45:50;19.50;74.50
15013;DHT22;7603;49.432;11.418;2024-02-15T15:48:20;19.20;75.40
15013;DHT22;7603;49.432;11.418;2024-02-15T15:50:46;18.80;75.90
15013;DHT22;7603;49.432;11.418;2024-02-15T15:53:13;18.40;77.00
15013;DHT22;7603;49.432;11.418;2024-02-15T15:55:40;18.10;78.20
15013;DHT22;7603;49.432;11.418;2024-02-15T15:58:05;17.70;79.60
15013;DHT22;7603;49.432;11.418;2024-02-15T16:00:35;17.30;80.40
15013;DHT22;7603;49.432;11.418;2024-02-15T16:03:01;17.00;82.00
15013;DHT22;7603;49.432;11.418;2024-02-15T16:05:30;16.70;83.60
15013;DHT22;7603;49.432;11.418;2024-02-15T16:07:56;16.30;85.10
15013;DHT22;7603;49.432;11.418;2024-02-15T16:10:22;16.00;87.00